Time;durP1;ratioP1;P1;durP2;ratioP2;P2;SDS_P1;SDS_P2;PMS_P1;PMS_P2;Temp;Humidity;BMP_temperature;BMP_pressure;BME280_temperature;BME280_humidity;BME280_pressure;Samples;Min_cycle;Max_cycle;Signal;HPM_P1;HPM_P2
2023/04/25 00:00:26;;;;;;;6.80;5.23;;;8.60;99.90;;;;;;5018156;28;20491;-63
2023/04/25 00:02:55;;;;;;;7.80;5.00;;;8.50;99.90;;;;;;5015518;28;20845;-62
2023/04/25 00:05:24;;;;;;;7.10;5.17;;;8.50;99.90;;;;;;5019757;28;20530;-63
2023/04/25 00:07:52;;;;;;;8.23;4.90;;;8.50;99.90;;;;;;5016505;28;20893;-62
2023/04/25 00:10:21;;;;;;;6.63;5.00;;;8.50;99.90;;;;;;5011962;28;20503;-62
2023/04/25 00:12:49;;;;;;;7.57;5.00;;;8.50;99.90;;;;;;5017847;28;20494;-62
2023/04/25 00:15:18;;;;;;;7.93;5.70;;;8.40;99.90;;;;;;5018767;28;20472;-62
2023/04/25 00:17:46;;;;;;;8.53;5.60;;;8.40;99.90;;;;;;5018238;28;20468;-63
2023/04/25 00:20:15;;;;;;;5.73;5.07;;;8.40;99.90;;;;;;5017551;28;20495;-62
2023/04/25 00:22:42;;;;;;;8.67;4.80;;;8.40;99.90;;;;;;5014502;28;20481;-62
2023/04/25 00:25:10;;;;;;;6.60;5.10;;;8.40;99.90;;;;;;5016721;28;21038;-62
2023/04/25 00:27:38;;;;;;;7.53;4.63;;;8.40;99.90;;;;;;5018393;28;20471;-63
2023/04/25 00:30:08;;;;;;;7.33;4.53;;;8.40;99.90;;;;;;5009611;28;20998;-62
2023/04/25 00:32:37;;;;;;;13.33;6.07;;;8.40;99.90;;;;;;5013716;28;20587;-63
2023/04/25 00:35:05;;;;;;;8.00;4.83;;;8.40;99.90;;;;;;5017256;28;20469;-62
2023/04/25 00:37:33;;;;;;;10.80;4.33;;;8.30;99.90;;;;;;5016177;28;20470;-62
2023/04/25 00:40:01;;;;;;;14.30;4.87;;;8.30;99.90;;;;;;5014030;28;20874;-62
2023/04/25 00:42:30;;;;;;;9.27;4.53;;;8.30;99.90;;;;;;5015808;28;20495;-62
2023/04/25 00:44:59;;;;;;;11.50;4.37;;;8.30;99.90;;;;;;5014659;28;21039;-62
2023/04/25 00:47:27;;;;;;;13.03;4.60;;;8.30;99.90;;;;;;5013681;28;20479;-62
2023/04/25 00:49:56;;;;;;;9.17;4.33;;;8.20;99.90;;;;;;5014985;28;20657;-63
2023/04/25 00:52:25;;;;;;;14.47;5.30;;;8.20;99.90;;;;;;5018111;28;20483;-63
2023/04/25 00:54:53;;;;;;;10.77;4.00;;;8.20;99.90;;;;;;5016429;28;20470;-62
2023/04/25 00:57:20;;;;;;;11.97;4.47;;;8.20;99.90;;;;;;5016175;28;20856;-63
2023/04/25 00:59:51;;;;;;;13.93;4.33;;;8.10;99.90;;;;;;5013457;28;20487;-62
2023/04/25 01:02:21;;;;;;;11.30;4.53;;;8.10;99.90;;;;;;5014606;28;20485;-61
2023/04/25 01:04:49;;;;;;;16.77;4.47;;;8.10;99.90;;;;;;5013491;28;20491;-63
2023/04/25 01:07:19;;;;;;;9.67;4.37;;;8.10;99.90;;;;;;5019959;28;20475;-62
2023/04/25 01:09:47;;;;;;;9.87;4.17;;;8.10;99.90;;;;;;5015719;28;20973;-62
2023/04/25 01:12:15;;;;;;;13.00;4.60;;;8.00;99.90;;;;;;5016284;28;20511;-63
2023/04/25 01:14:43;;;;;;;9.57;4.23;;;8.10;99.90;;;;;;5018499;28;20469;-63
2023/04/25 01:17:11;;;;;;;14.67;4.40;;;8.10;99.90;;;;;;5017825;28;20483;-62
2023/04/25 01:19:39;;;;;;;12.60;5.00;;;8.10;99.90;;;;;;5012979;28;20490;-62
2023/04/25 01:22:10;;;;;;;12.67;5.37;;;8.00;99.90;;;;;;5021055;28;20573;-63
2023/04/25 01:24:38;;;;;;;11.87;4.80;;;8.00;99.90;;;;;;5019656;28;20863;-63
2023/04/25 01:27:07;;;;;;;16.00;5.10;;;7.90;99.90;;;;;;5018348;28;20537;-62
2023/04/25 01:33:16;;;;;;;15.33;5.10;;;7.90;99.90;;;;;;5011577;28;20960;-62
2023/04/25 01:35:44;;;;;;;13.33;4.83;;;7.90;99.90;;;;;;5012679;28;20555;-63
2023/04/25 01:38:14;;;;;;;9.97;5.00;;;7.90;99.90;;;;;;5012792;28;20482;-62
2023/04/25 01:40:45;;;;;;;14.63;4.87;;;7.80;99.90;;;;;;5018475;28;20991;-63
2023/04/25 01:43:14;;;;;;;16.67;4.70;;;7.80;99.90;;;;;;5013648;28;20483;-62
2023/04/25 01:45:42;;;;;;;16.93;5.47;;;7.70;99.90;;;;;;5014690;28;20517;-62
2023/04/25 01:48:10;;;;;;;11.27;4.83;;;7.70;99.90;;;;;;5014639;28;20495;-62
2023/04/25 01:50:39;;;;;;;12.37;5.73;;;7.70;99.90;;;;;;5014471;28;20529;-63
2023/04/25 01:53:07;;;;;;;17.43;5.10;;;7.70;99.90;;;;;;5013916;28;20884;-63
2023/04/25 01:55:37;;;;;;;10.33;4.50;;;7.60;99.90;;;;;;5016274;28;20509;-62
2023/04/25 01:58:08;;;;;;;9.97;4.60;;;7.60;99.90;;;;;;5009938;28;21715;-62
2023/04/25 02:00:38;;;;;;;13.27;4.67;;;7.60;99.90;;;;;;5015052;28;20574;-62
2023/04/25 02:03:06;;;;;;;13.00;4.20;;;7.60;99.90;;;;;;5015175;28;20475;-62
2023/04/25 02:05:38;;;;;;;15.80;5.00;;;7.60;99.90;;;;;;5008844;28;20498;-62
2023/04/25 02:08:07;;;;;;;12.53;4.77;;;7.60;99.90;;;;;;5016273;28;20483;-64
2023/04/25 02:14:17;;;;;;;10.30;4.83;;;7.50;99.90;;;;;;5019257;28;20485;-62
2023/04/25 02:16:46;;;;;;;13.40;4.87;;;7.50;99.90;;;;;;5018593;28;20459;-62
2023/04/25 02:19:14;;;;;;;11.03;4.70;;;7.50;99.90;;;;;;5017651;28;20491;-63
2023/04/25 02:21:42;;;;;;;11.00;4.50;;;7.50;99.90;;;;;;5009979;28;20977;-62
2023/04/25 02:24:10;;;;;;;10.77;3.80;;;7.50;99.90;;;;;;5021398;28;20508;-62
2023/04/25 02:26:38;;;;;;;11.20;4.20;;;7.50;99.90;;;;;;5020364;28;20499;-62
2023/04/25 02:29:06;;;;;;;10.47;4.37;;;7.40;99.90;;;;;;5021494;28;20576;-62
2023/04/25 02:31:36;;;;;;;8.03;4.10;;;7.40;99.90;;;;;;5015442;28;21042;-62
2023/04/25 02:34:04;;;;;;;13.23;4.93;;;7.50;99.90;;;;;;5012105;28;20467;-62
2023/04/25 02:36:34;;;;;;;10.50;4.63;;;7.50;99.90;;;;;;5014048;28;20468;-62
2023/04/25 02:39:02;;;;;;;11.77;4.43;;;7.40;99.90;;;;;;5018758;28;20865;-62
2023/04/25 02:41:30;;;;;;;11.30;4.67;;;7.40;99.90;;;;;;5022070;28;20482;-62
2023/04/25 02:43:58;;;;;;;13.37;4.77;;;7.40;99.90;;;;;;5022887;28;20471;-63
2023/04/25 02:46:26;;;;;;;10.63;4.50;;;7.40;99.90;;;;;;5020519;28;20522;-62
2023/04/25 02:49:07;;;;;;;17.30;4.83;;;7.40;99.90;;;;;;5011662;28;20548;-62
2023/04/25 02:51:35;;;;;;;11.80;4.67;;;7.40;99.90;;;;;;5014633;28;20497;-62
2023/04/25 02:54:03;;;;;;;12.17;4.60;;;7.40;99.90;;;;;;5015523;28;20848;-62
2023/04/25 02:56:31;;;;;;;9.40;3.87;;;7.40;99.90;;;;;;5018359;28;20471;-62
2023/04/25 02:59:00;;;;;;;12.67;4.27;;;7.40;99.90;;;;;;5021110;28;20483;-62
2023/04/25 03:01:30;;;;;;;8.67;3.90;;;7.30;99.90;;;;;;5021071;28;20521;-62
2023/04/25 03:03:58;;;;;;;10.10;4.00;;;7.30;99.90;;;;;;5018558;28;20466;-62
2023/04/25 03:06:27;;;;;;;11.87;4.30;;;7.30;99.90;;;;;;5016746;28;21852;-63
2023/04/25 03:08:55;;;;;;;10.93;4.13;;;7.20;99.90;;;;;;5015700;28;20487;-63
2023/04/25 03:11:27;;;;;;;7.57;3.90;;;7.20;99.90;;;;;;5021211;28;20479;-63
2023/04/25 03:48:25;;;;;;;7.60;3.87;;;6.70;99.90;;;;;;4716294;30;20511;-63
2023/04/25 03:50:53;;;;;;;7.97;3.83;;;6.70;99.90;;;;;;4733900;30;20932;-62
2023/04/25 03:53:21;;;;;;;10.57;4.00;;;6.70;99.90;;;;;;4807890;29;20481;-62
2023/04/25 03:55:49;;;;;;;13.50;4.30;;;6.70;99.90;;;;;;4824779;29;20492;-62
2023/04/25 03:58:17;;;;;;;9.20;3.70;;;6.70;99.90;;;;;;4822327;29;20504;-62
2023/04/25 04:00:45;;;;;;;7.80;3.63;;;6.70;99.90;;;;;;4822259;29;20488;-62
2023/04/25 04:03:13;;;;;;;10.77;3.60;;;6.70;99.90;;;;;;4856314;29;20482;-63
2023/04/25 04:05:43;;;;;;;8.60;4.30;;;6.60;99.90;;;;;;4881427;29;20496;-62
2023/04/25 04:08:10;;;;;;;17.10;3.77;;;6.60;99.90;;;;;;4878403;29;20506;-63
2023/04/25 04:10:52;;;;;;;11.97;3.30;;;6.60;99.90;;;;;;4880660;29;20510;-62
2023/04/25 04:13:23;;;;;;;12.73;3.90;;;6.60;99.90;;;;;;4953478;28;20468;-62
2023/04/25 04:15:51;;;;;;;9.40;3.70;;;6.60;99.90;;;;;;4975723;28;20474;-62
2023/04/25 04:18:19;;;;;;;12.33;3.57;;;6.60;99.90;;;;;;4974961;28;20469;-62
2023/04/25 04:20:48;;;;;;;6.03;3.20;;;6.60;99.90;;;;;;4976093;28;20868;-62
2023/04/25 04:23:16;;;;;;;12.00;4.37;;;6.60;99.90;;;;;;4978984;28;20474;-62
2023/04/25 04:25:44;;;;;;;7.77;3.67;;;6.60;99.90;;;;;;4982438;28;21284;-62
2023/04/25 04:28:13;;;;;;;6.30;3.23;;;6.50;99.90;;;;;;5018156;28;20529;-63
2023/04/25 04:30:41;;;;;;;9.17;3.60;;;6.50;99.90;;;;;;5014965;28;20478;-62
2023/04/25 04:33:09;;;;;;;14.53;3.50;;;6.50;99.90;;;;;;5007451;28;20985;-62
2023/04/25 04:35:37;;;;;;;7.73;3.97;;;6.50;99.90;;;;;;5013023;28;20468;-62
2023/04/25 04:38:06;;;;;;;6.20;3.17;;;6.50;99.90;;;;;;5013703;28;20482;-62
2023/04/25 04:40:34;;;;;;;12.77;3.20;;;6.50;99.90;;;;;;5015041;28;21135;-62
2023/04/25 04:43:02;;;;;;;10.07;3.03;;;6.40;99.90;;;;;;5017733;28;20500;-62
2023/04/25 04:45:30;;;;;;;9.70;3.13;;;6.50;99.90;;;;;;5011401;28;20468;-62
2023/04/25 04:47:58;;;;;;;10.40;3.30;;;6.40;99.90;;;;;;5015403;28;20494;-62
2023/04/25 04:50:27;;;;;;;6.17;2.73;;;6.50;99.90;;;;;;5013601;28;20926;-62
2023/04/25 04:52:55;;;;;;;10.43;3.40;;;6.50;99.90;;;;;;5010881;28;20475;-63
2023/04/25 04:55:24;;;;;;;9.10;4.00;;;6.50;99.90;;;;;;5018564;28;20473;-62
2023/04/25 04:57:52;;;;;;;7.07;3.50;;;6.60;99.90;;;;;;5014475;28;20467;-62
2023/04/25 05:00:21;;;;;;;6.97;3.90;;;6.60;99.90;;;;;;5020083;28;20490;-63
2023/04/25 05:02:49;;;;;;;8.13;3.17;;;6.60;99.90;;;;;;5010451;28;21009;-62
2023/04/25 05:05:17;;;;;;;7.83;3.10;;;6.60;99.90;;;;;;5009016;28;21232;-62
2023/04/25 05:07:45;;;;;;;5.00;2.90;;;6.60;99.90;;;;;;5000801;28;21047;-62
2023/04/25 05:10:13;;;;;;;13.27;4.00;;;6.60;99.90;;;;;;5000628;28;20492;-62
2023/04/25 05:12:43;;;;;;;11.87;3.20;;;6.60;99.90;;;;;;5006025;28;21579;-61
2023/04/25 05:15:11;;;;;;;6.37;3.07;;;6.60;99.90;;;;;;5010875;28;20479;-62
2023/04/25 05:17:39;;;;;;;9.37;3.70;;;6.60;99.90;;;;;;5016553;28;20495;-61
2023/04/25 05:20:09;;;;;;;9.17;2.90;;;6.60;99.90;;;;;;5014527;28;20495;-61
2023/04/25 05:22:37;;;;;;;11.13;3.23;;;6.60;99.90;;;;;;5013705;28;20523;-61
2023/04/25 05:25:06;;;;;;;8.83;3.30;;;6.60;99.90;;;;;;5013377;28;20470;-62
2023/04/25 05:27:34;;;;;;;10.77;3.33;;;6.60;99.90;;;;;;5013052;28;20488;-62
2023/04/25 05:30:05;;;;;;;8.20;3.43;;;6.60;99.90;;;;;;5017313;28;20502;-61
2023/04/25 05:32:33;;;;;;;8.10;3.27;;;6.50;99.90;;;;;;5012176;28;20498;-62
2023/04/25 05:35:01;;;;;;;6.10;3.47;;;6.50;99.90;;;;;;5018979;28;20468;-61
2023/04/25 05:37:30;;;;;;;4.80;2.90;;;6.50;99.90;;;;;;5016064;28;21015;-61
2023/04/25 05:39:58;;;;;;;7.80;3.17;;;6.50;99.90;;;;;;5017235;28;20488;-62
2023/04/25 05:42:26;;;;;;;7.70;3.77;;;6.50;99.90;;;;;;5011340;28;20488;-61
2023/04/25 05:44:54;;;;;;;9.13;3.20;;;6.60;99.90;;;;;;5009953;28;21002;-62
2023/04/25 05:47:23;;;;;;;7.63;3.27;;;6.60;99.90;;;;;;5007182;28;20496;-62
2023/04/25 05:49:51;;;;;;;8.67;3.20;;;6.60;99.90;;;;;;5004927;28;20591;-61
2023/04/25 05:52:19;;;;;;;7.90;3.40;;;6.60;99.90;;;;;;5010795;28;21230;-62
2023/04/25 05:54:47;;;;;;;8.07;3.53;;;6.60;99.90;;;;;;5020348;28;20472;-62
2023/04/25 05:57:23;;;;;;;9.03;3.13;;;6.70;99.90;;;;;;5016427;28;20462;-62
2023/04/25 05:59:51;;;;;;;8.23;3.63;;;6.70;99.90;;;;;;5018116;28;20492;-62
2023/04/25 06:02:20;;;;;;;8.60;3.20;;;6.80;99.90;;;;;;5018264;28;20495;-62
2023/04/25 06:04:51;;;;;;;5.23;3.20;;;6.80;99.90;;;;;;5020319;28;20515;-62
2023/04/25 06:07:20;;;;;;;8.20;3.30;;;6.80;99.90;;;;;;5019146;28;20589;-62
2023/04/25 06:09:48;;;;;;;5.63;3.20;;;6.90;99.90;;;;;;5019270;28;20570;-61
2023/04/25 06:12:16;;;;;;;6.87;3.60;;;6.90;99.90;;;;;;5018832;28;20502;-62
2023/04/25 06:14:44;;;;;;;9.93;3.83;;;6.90;99.90;;;;;;5019847;28;20471;-62
2023/04/25 06:17:11;;;;;;;10.17;3.30;;;6.90;99.90;;;;;;5016556;28;20553;-61
2023/04/25 06:19:39;;;;;;;7.53;3.47;;;6.90;99.90;;;;;;5019000;28;20491;-62
2023/04/25 06:22:09;;;;;;;9.20;3.37;;;7.00;99.90;;;;;;5016417;28;20475;-61
2023/04/25 06:24:37;;;;;;;11.23;3.40;;;7.00;99.90;;;;;;5018009;28;20471;-62
2023/04/25 06:27:05;;;;;;;8.03;3.13;;;7.00;99.90;;;;;;5020322;28;20962;-62
2023/04/25 06:29:33;;;;;;;11.83;3.30;;;7.00;99.90;;;;;;5020879;28;20500;-62
2023/04/25 06:32:01;;;;;;;7.07;2.77;;;7.00;99.90;;;;;;5018513;28;20908;-62
2023/04/25 06:34:29;;;;;;;6.80;3.20;;;7.10;99.90;;;;;;5020544;28;20475;-61
2023/04/25 06:36:56;;;;;;;10.33;3.20;;;7.10;99.90;;;;;;5021097;28;20476;-62
2023/04/25 06:39:26;;;;;;;8.33;3.10;;;7.10;99.90;;;;;;5020920;28;20495;-62
2023/04/25 06:41:54;;;;;;;8.30;3.00;;;7.10;99.90;;;;;;5018682;28;20506;-62
2023/04/25 06:44:23;;;;;;;7.53;3.50;;;7.10;99.90;;;;;;5018917;28;21122;-62
2023/04/25 06:46:51;;;;;;;7.13;3.03;;;7.20;99.90;;;;;;5018649;28;20566;-62
2023/04/25 06:49:18;;;;;;;8.70;3.27;;;7.20;99.90;;;;;;5016270;28;20494;-62
2023/04/25 06:51:46;;;;;;;6.70;3.33;;;7.20;99.90;;;;;;5018145;28;20485;-62
2023/04/25 06:54:14;;;;;;;5.13;3.30;;;7.20;99.90;;;;;;5019030;28;20467;-62
2023/04/25 06:56:44;;;;;;;5.57;2.77;;;7.20;99.90;;;;;;5017282;28;20471;-62
2023/04/25 06:59:12;;;;;;;6.67;2.97;;;7.30;99.90;;;;;;5023500;28;20495;-62
2023/04/25 07:01:40;;;;;;;8.80;2.70;;;7.30;99.90;;;;;;5020987;28;20490;-61
2023/04/25 07:04:08;;;;;;;4.93;2.70;;;7.40;99.90;;;;;;5021845;28;20468;-61
2023/04/25 07:06:37;;;;;;;7.80;3.70;;;7.40;99.90;;;;;;5021569;28;20554;-61
2023/04/25 07:09:06;;;;;;;6.93;3.23;;;7.40;99.90;;;;;;5023488;28;20530;-61
2023/04/25 07:11:34;;;;;;;7.13;2.30;;;7.40;99.90;;;;;;5017848;28;20491;-62
2023/04/25 07:14:03;;;;;;;7.00;3.13;;;7.30;99.90;;;;;;5022136;28;21103;-60
2023/04/25 07:16:31;;;;;;;4.77;2.63;;;7.30;99.90;;;;;;5020092;28;21008;-62
2023/04/25 07:18:59;;;;;;;4.90;2.50;;;7.40;99.90;;;;;;5021030;28;20479;-61
2023/04/25 07:21:27;;;;;;;6.40;2.83;;;7.40;99.90;;;;;;5020486;28;20562;-61
2023/04/25 07:23:55;;;;;;;9.10;3.33;;;7.40;99.90;;;;;;5022996;28;20506;-61
2023/04/25 07:26:23;;;;;;;5.10;2.50;;;7.40;99.90;;;;;;5022378;28;20501;-62
2023/04/25 07:28:51;;;;;;;6.70;2.70;;;7.40;99.90;;;;;;5023163;28;20500;-62
2023/04/25 07:31:21;;;;;;;6.40;2.53;;;7.40;99.90;;;;;;5018091;28;20483;-61
2023/04/25 07:33:50;;;;;;;6.50;2.33;;;7.40;99.90;;;;;;5020354;28;20539;-62
2023/04/25 07:36:17;;;;;;;7.20;2.50;;;7.30;99.90;;;;;;5022142;28;20475;-62
2023/04/25 07:38:45;;;;;;;7.53;2.73;;;7.30;99.90;;;;;;5019137;28;20483;-61
2023/04/25 07:41:13;;;;;;;10.43;3.17;;;7.30;99.90;;;;;;5021500;28;20494;-62
2023/04/25 07:43:41;;;;;;;4.90;2.20;;;7.40;99.90;;;;;;5022114;28;20611;-63
2023/04/25 07:46:09;;;;;;;5.00;2.23;;;7.40;99.90;;;;;;5021209;28;20541;-62
2023/04/25 07:48:38;;;;;;;4.90;2.07;;;7.50;99.90;;;;;;5021581;28;20989;-62
2023/04/25 07:51:07;;;;;;;7.43;2.27;;;7.50;99.90;;;;;;5021429;28;20479;-62
2023/04/25 07:53:37;;;;;;;6.87;4.03;;;7.60;99.90;;;;;;5022052;28;20463;-62
2023/04/25 07:56:05;;;;;;;5.30;2.20;;;7.60;99.90;;;;;;5019445;28;20474;-67
2023/04/25 07:58:33;;;;;;;6.90;2.53;;;7.70;99.90;;;;;;5021766;28;20464;-62
2023/04/25 08:01:01;;;;;;;4.33;2.10;;;7.80;99.90;;;;;;5017939;28;20484;-62
2023/04/25 08:03:29;;;;;;;4.10;2.50;;;7.90;99.90;;;;;;5021752;28;20471;-62
2023/04/25 08:06:01;;;;;;;10.80;2.47;;;8.00;99.90;;;;;;5019936;28;20471;-62
2023/04/25 08:08:34;;;;;;;6.10;2.33;;;8.00;99.90;;;;;;5019329;28;20837;-61
2023/04/25 08:11:02;;;;;;;8.13;2.47;;;8.10;99.90;;;;;;5020377;28;20482;-61
2023/04/25 08:13:30;;;;;;;8.67;2.70;;;8.10;99.90;;;;;;5017255;28;20463;-61
2023/04/25 08:15:58;;;;;;;11.00;2.50;;;8.10;99.90;;;;;;5019055;28;20999;-62
2023/04/25 08:18:26;;;;;;;9.40;2.60;;;8.10;99.90;;;;;;5021577;28;20499;-62
2023/04/25 08:20:54;;;;;;;7.63;2.30;;;8.10;99.90;;;;;;5021742;28;20855;-61
2023/04/25 08:23:24;;;;;;;5.63;1.93;;;8.00;99.90;;;;;;5019450;28;20960;-62
2023/04/25 08:25:53;;;;;;;4.50;2.33;;;8.00;99.90;;;;;;5020193;28;20938;-61
2023/04/25 08:28:21;;;;;;;5.50;2.37;;;8.00;99.90;;;;;;5021803;28;20491;-61
2023/04/25 08:30:49;;;;;;;5.87;2.20;;;8.00;99.90;;;;;;5016663;28;20472;-62
2023/04/25 08:33:17;;;;;;;5.40;2.33;;;8.00;99.90;;;;;;5021164;28;20472;-62
2023/04/25 08:35:45;;;;;;;5.70;2.10;;;8.00;99.90;;;;;;5021350;28;20476;-62
2023/04/25 08:38:13;;;;;;;2.83;1.70;;;8.00;99.90;;;;;;5023265;28;20474;-62
2023/04/25 08:40:45;;;;;;;11.03;2.47;;;8.00;99.90;;;;;;5020075;28;20484;-62
2023/04/25 08:43:14;;;;;;;5.07;1.90;;;8.00;99.90;;;;;;5020678;28;20483;-62
2023/04/25 08:45:43;;;;;;;7.67;2.83;;;8.00;99.90;;;;;;5021128;28;20498;-62
2023/04/25 08:48:13;;;;;;;6.17;2.40;;;8.00;99.90;;;;;;5017901;28;20482;-61
2023/04/25 08:50:46;;;;;;;4.30;1.93;;;8.00;99.90;;;;;;5020436;28;21008;-61
2023/04/25 08:53:18;;;;;;;8.67;2.70;;;8.10;99.90;;;;;;5019688;28;20475;-62
2023/04/25 08:55:49;;;;;;;5.63;2.23;;;8.10;99.90;;;;;;5016710;28;20495;-62
2023/04/25 08:58:19;;;;;;;4.87;2.33;;;8.00;99.90;;;;;;5011413;28;20475;-62
2023/04/25 09:00:47;;;;;;;6.37;1.90;;;8.10;99.90;;;;;;5020097;28;20471;-62
2023/04/25 09:03:15;;;;;;;11.23;2.30;;;8.20;99.90;;;;;;5018797;28;20517;-62
2023/04/25 09:05:44;;;;;;;5.03;2.07;;;8.40;99.90;;;;;;5020788;28;20506;-61
2023/04/25 09:08:12;;;;;;;5.60;2.10;;;8.50;99.90;;;;;;5018783;28;20578;-62
2023/04/25 09:10:42;;;;;;;5.60;2.03;;;8.50;99.90;;;;;;5021513;28;20491;-62
2023/04/25 09:13:14;;;;;;;4.97;1.83;;;8.50;99.90;;;;;;5021076;28;20464;-62
2023/04/25 09:15:51;;;;;;;5.43;1.80;;;8.40;99.90;;;;;;5021725;28;20475;-62
2023/04/25 09:18:26;;;;;;;3.47;1.90;;;8.40;99.90;;;;;;5018211;28;20477;-62
2023/04/25 09:21:05;;;;;;;5.50;1.40;;;8.30;99.90;;;;;;5018842;28;21024;-61
2023/04/25 09:23:43;;;;;;;6.20;2.10;;;8.30;99.90;;;;;;5018282;28;20494;-61
2023/04/25 09:26:11;;;;;;;5.47;1.60;;;8.40;99.90;;;;;;5019334;28;21054;-62
2023/04/25 09:28:40;;;;;;;6.90;1.80;;;8.40;99.90;;;;;;5015220;28;20518;-61
2023/04/25 09:31:11;;;;;;;6.97;3.40;;;8.50;99.90;;;;;;5018767;28;20476;-62
2023/04/25 09:33:41;;;;;;;5.77;1.67;;;8.50;99.90;;;;;;5016816;28;20523;-62
2023/04/25 09:36:10;;;;;;;5.23;1.83;;;8.50;99.90;;;;;;5012519;28;21211;-62
2023/04/25 09:38:42;;;;;;;5.83;2.07;;;8.70;99.90;;;;;;5014846;28;20492;-61
2023/04/25 09:41:10;;;;;;;7.60;2.20;;;8.70;99.90;;;;;;5018421;28;20499;-62
2023/04/25 09:43:40;;;;;;;4.93;2.07;;;8.70;99.90;;;;;;5019298;28;20475;-61
2023/04/25 09:46:10;;;;;;;4.57;1.80;;;8.30;99.90;;;;;;5018695;28;20479;-63
2023/04/25 09:48:39;;;;;;;6.80;2.63;;;7.90;99.90;;;;;;5016320;28;20496;-62
2023/04/25 09:51:08;;;;;;;4.50;2.13;;;7.80;99.90;;;;;;5016214;28;20483;-62
2023/04/25 09:53:37;;;;;;;5.40;2.07;;;7.80;99.90;;;;;;5016568;28;20829;-61
2023/04/25 09:56:07;;;;;;;6.27;2.00;;;7.80;99.90;;;;;;5016363;28;20957;-62
2023/04/25 09:58:36;;;;;;;6.63;2.27;;;7.90;99.90;;;;;;5013156;28;20475;-61
2023/04/25 10:01:07;;;;;;;2.87;1.80;;;8.00;99.90;;;;;;5017328;28;20948;-61
2023/04/25 10:03:37;;;;;;;4.93;1.77;;;8.20;99.90;;;;;;5017406;28;20475;-62
2023/04/25 10:06:09;;;;;;;5.60;2.27;;;8.30;99.90;;;;;;5017542;28;20503;-62
2023/04/25 10:08:38;;;;;;;5.43;1.97;;;8.40;99.90;;;;;;5018528;28;20605;-62
2023/04/25 10:11:07;;;;;;;4.27;2.10;;;8.60;99.90;;;;;;5017518;28;20484;-62
2023/04/25 10:13:36;;;;;;;4.10;2.20;;;8.60;99.90;;;;;;5017856;28;20473;-62
2023/04/25 10:16:06;;;;;;;5.13;1.90;;;8.70;99.90;;;;;;5015545;28;20467;-62
2023/04/25 10:18:34;;;;;;;3.63;1.97;;;8.70;99.90;;;;;;5018281;28;20467;-62
2023/04/25 10:21:05;;;;;;;5.00;1.70;;;8.90;99.90;;;;;;5018519;28;20482;-62
2023/04/25 10:23:34;;;;;;;3.80;1.90;;;9.00;99.90;;;;;;5014982;28;20699;-62
2023/04/25 10:26:02;;;;;;;3.30;1.50;;;9.10;99.90;;;;;;5015581;28;20477;-62
2023/04/25 10:28:51;;;;;;;4.73;1.87;;;9.10;99.90;;;;;;5015060;28;20482;-61
2023/04/25 10:31:20;;;;;;;6.70;2.00;;;9.10;99.90;;;;;;5017303;28;20506;-62
2023/04/25 10:33:49;;;;;;;5.70;1.67;;;9.00;99.90;;;;;;5020041;28;20471;-62
2023/04/25 10:36:23;;;;;;;5.97;1.80;;;8.90;99.90;;;;;;5020218;28;20606;-61
2023/04/25 10:38:54;;;;;;;10.50;2.17;;;8.90;99.90;;;;;;5022665;28;20488;-61
2023/04/25 10:41:22;;;;;;;3.80;1.70;;;9.10;99.90;;;;;;5020900;28;20526;-61
2023/04/25 10:43:59;;;;;;;7.47;2.70;;;9.30;99.90;;;;;;5020767;28;20471;-62
2023/04/25 10:46:30;;;;;;;8.17;2.17;;;9.50;99.90;;;;;;5021398;28;20479;-62
2023/04/25 10:48:59;;;;;;;4.00;1.57;;;9.60;99.90;;;;;;5017511;28;20999;-62
2023/04/25 10:51:30;;;;;;;5.37;1.97;;;9.70;99.90;;;;;;5019150;28;20488;-62
2023/04/25 10:54:10;;;;;;;5.13;1.60;;;9.80;99.90;;;;;;5022290;28;20471;-62
2023/04/25 10:56:39;;;;;;;5.23;1.93;;;9.80;99.90;;;;;;5019776;28;21146;-61
2023/04/25 10:59:09;;;;;;;4.40;1.30;;;9.80;99.90;;;;;;5017718;28;20487;-62
2023/04/25 11:01:41;;;;;;;3.90;1.50;;;9.70;99.90;;;;;;5015733;28;20487;-62
2023/04/25 11:04:22;;;;;;;4.57;1.67;;;9.60;99.90;;;;;;5018713;28;20837;-62
2023/04/25 11:07:03;;;;;;;4.47;1.57;;;9.50;99.90;;;;;;5018748;28;20537;-61
2023/04/25 11:09:35;;;;;;;4.30;1.40;;;9.50;99.90;;;;;;5021257;28;20861;-61
2023/04/25 11:12:03;;;;;;;5.80;1.73;;;9.60;99.90;;;;;;5021921;28;20942;-62
2023/04/25 11:14:31;;;;;;;4.07;1.97;;;9.60;99.90;;;;;;5019976;28;20925;-62
2023/04/25 11:17:01;;;;;;;3.83;1.60;;;9.60;99.90;;;;;;5018792;28;20476;-62
2023/04/25 11:19:32;;;;;;;4.73;1.80;;;9.50;99.90;;;;;;5022855;28;20495;-62
2023/04/25 11:22:02;;;;;;;7.57;1.50;;;9.30;99.90;;;;;;5010174;28;20877;-61
2023/04/25 11:24:31;;;;;;;3.03;1.47;;;9.10;99.90;;;;;;5014240;28;20499;-61
2023/04/25 11:26:59;;;;;;;5.10;1.50;;;9.00;99.90;;;;;;5018765;28;20982;-62
2023/04/25 11:29:28;;;;;;;4.47;1.83;;;8.90;99.90;;;;;;5013676;28;20883;-62
2023/04/25 11:31:57;;;;;;;9.27;6.87;;;9.00;99.90;;;;;;5012542;28;22617;-62
2023/04/25 11:34:35;;;;;;;10.73;6.73;;;9.10;99.90;;;;;;5012003;28;20481;-62
2023/04/25 11:37:03;;;;;;;6.27;2.33;;;9.30;99.90;;;;;;5018684;28;21129;-63
2023/04/25 11:39:31;;;;;;;2.90;1.80;;;9.40;99.90;;;;;;5018711;28;20500;-63
2023/04/25 11:42:01;;;;;;;4.20;1.30;;;9.50;99.90;;;;;;5019873;28;20586;-61
2023/04/25 11:44:33;;;;;;;3.63;1.33;;;9.50;99.90;;;;;;5021752;28;20478;-61
2023/04/25 11:47:02;;;;;;;5.10;1.60;;;9.60;99.90;;;;;;5020813;28;20536;-62
2023/04/25 11:49:31;;;;;;;4.77;1.50;;;9.80;99.90;;;;;;5010481;28;20494;-61
2023/04/25 11:52:01;;;;;;;3.20;1.70;;;10.00;99.90;;;;;;5014598;28;20503;-62
2023/04/25 11:54:28;;;;;;;4.03;1.37;;;10.10;99.90;;;;;;5021503;28;20468;-62
2023/04/25 11:56:57;;;;;;;4.30;1.53;;;10.30;99.90;;;;;;5020356;28;20502;-62
2023/04/25 11:59:26;;;;;;;4.00;1.40;;;10.50;99.90;;;;;;5020208;28;20558;-62
2023/04/25 12:01:55;;;;;;;7.13;1.57;;;10.60;99.90;;;;;;5016745;28;20662;-62
2023/04/25 12:04:24;;;;;;;5.43;1.40;;;10.60;99.90;;;;;;5023027;28;20889;-62
2023/04/25 12:06:53;;;;;;;3.90;1.97;;;10.50;99.90;;;;;;5009818;28;20554;-62
2023/04/25 12:09:31;;;;;;;3.07;1.30;;;10.50;99.90;;;;;;5017484;28;20861;-62
2023/04/25 12:12:02;;;;;;;2.10;0.97;;;10.50;99.90;;;;;;5013582;28;20501;-62
2023/04/25 12:14:32;;;;;;;4.20;1.13;;;10.60;99.90;;;;;;5018371;28;20473;-62
2023/04/25 12:17:01;;;;;;;3.03;1.00;;;10.90;99.90;;;;;;5016642;28;20467;-62
2023/04/25 12:19:34;;;;;;;2.07;0.83;;;10.80;99.90;;;;;;5017542;28;20840;-61
2023/04/25 12:22:03;;;;;;;3.90;1.33;;;10.90;99.90;;;;;;5011605;28;20495;-62
2023/04/25 12:24:35;;;;;;;3.27;1.03;;;10.80;99.90;;;;;;5026175;28;20466;-61
2023/04/25 12:27:07;;;;;;;2.30;0.97;;;10.80;99.90;;;;;;5041290;28;20520;-61
2023/04/25 12:29:36;;;;;;;3.10;1.40;;;10.90;99.90;;;;;;5026940;28;20506;-62
2023/04/25 12:32:06;;;;;;;2.70;1.00;;;11.10;99.90;;;;;;5019323;28;20721;-62
2023/04/25 12:34:35;;;;;;;2.87;1.50;;;11.10;99.90;;;;;;5016863;28;20467;-62
2023/04/25 12:37:04;;;;;;;4.20;1.10;;;11.10;99.90;;;;;;5015979;28;20472;-62
2023/04/25 12:39:34;;;;;;;3.73;1.47;;;11.20;99.90;;;;;;5016405;28;20584;-62
2023/04/25 12:42:02;;;;;;;3.93;1.17;;;11.30;99.90;;;;;;5017596;28;20487;-62
2023/04/25 12:44:31;;;;;;;3.73;1.30;;;11.40;99.90;;;;;;5012257;28;20464;-62
2023/04/25 12:46:59;;;;;;;2.60;1.43;;;11.50;99.90;;;;;;5020138;28;20467;-62
2023/04/25 12:49:28;;;;;;;3.70;1.37;;;11.60;99.90;;;;;;5018169;28;20496;-61
2023/04/25 12:51:56;;;;;;;4.60;1.30;;;11.70;99.90;;;;;;5016394;28;20488;-62
2023/04/25 12:54:24;;;;;;;2.90;1.67;;;11.60;99.90;;;;;;5021427;28;20881;-62
2023/04/25 12:56:54;;;;;;;2.70;1.20;;;11.30;99.90;;;;;;5017038;28;20482;-62
2023/04/25 12:59:22;;;;;;;2.80;1.50;;;11.10;99.90;;;;;;5020258;28;20494;-62
2023/04/25 13:01:50;;;;;;;4.63;1.83;;;11.00;99.90;;;;;;5017441;28;20489;-62
2023/04/25 13:04:20;;;;;;;2.17;1.40;;;11.10;99.90;;;;;;5018680;28;21106;-62
2023/04/25 13:06:49;;;;;;;2.67;1.60;;;11.20;99.90;;;;;;5020025;28;20527;-61
2023/04/25 13:09:17;;;;;;;3.93;2.00;;;11.40;99.90;;;;;;5020859;28;20492;-63
2023/04/25 13:11:45;;;;;;;3.53;1.63;;;11.60;99.90;;;;;;5017980;28;20480;-61
2023/04/25 13:14:15;;;;;;;3.90;1.60;;;11.80;99.90;;;;;;5017708;28;20480;-62
2023/04/25 13:16:43;;;;;;;3.27;1.73;;;11.90;99.90;;;;;;5019081;28;20482;-62
2023/04/25 13:19:13;;;;;;;2.20;1.20;;;12.00;99.90;;;;;;5018259;28;20578;-62
2023/04/25 13:21:41;;;;;;;2.20;1.20;;;11.60;99.90;;;;;;5014518;28;20487;-62
2023/04/25 13:24:12;;;;;;;4.40;1.47;;;11.10;99.90;;;;;;5013169;28;20494;-62
2023/04/25 13:26:40;;;;;;;2.50;1.60;;;10.60;99.90;;;;;;5020959;28;20482;-62
2023/04/25 13:29:08;;;;;;;4.10;1.70;;;10.30;99.90;;;;;;5019597;28;20495;-62
2023/04/25 13:31:38;;;;;;;6.87;1.77;;;10.10;99.90;;;;;;5017861;28;20502;-62
2023/04/25 13:34:06;;;;;;;3.47;1.67;;;10.10;99.90;;;;;;5020122;28;20474;-62
2023/04/25 13:36:33;;;;;;;4.43;1.70;;;10.40;99.90;;;;;;5021019;28;20479;-61
2023/04/25 13:39:03;;;;;;;5.10;2.33;;;10.70;99.90;;;;;;5014482;28;21047;-62
2023/04/25 13:41:31;;;;;;;3.60;1.73;;;11.00;99.90;;;;;;5017278;28;20858;-62
2023/04/25 13:44:00;;;;;;;4.17;1.93;;;11.30;99.90;;;;;;5016017;28;20468;-62